sensor_id;sensor_type;location;lat;lon;timestamp;P1;durP1;ratioP1;P2;durP2;ratioP2
63874;SDS011;51595;24.180;-110.296;2022-08-20T00:00:14;12.63;;;2.80;;
63874;SDS011;51595;24.180;-110.296;2022-08-20T00:02:48;11.82;;;2.72;;
63874;SDS011;51595;24.180;-110.296;2022-08-20T00:05:20;11.23;;;2.20;;
63874;SDS011;51595;24.180;-110.296;2022-08-20T00:08:07;9.10;;;2.85;;
63874;SDS011;51595;24.180;-110.296;2022-08-20T00:10:36;8.27;;;2.28;;
63874;SDS011;51595;24.180;-110.296;2022-08-20T00:13:06;6.10;;;2.15;;
63874;SDS011;51595;24.180;-110.296;2022-08-20T00:15:36;9.68;;;2.88;;
63874;SDS011;51595;24.180;-110.296;2022-08-20T00:18:03;8.02;;;2.10;;
63874;SDS011;51595;24.180;-110.296;2022-08-20T00:20:39;7.05;;;1.98;;
63874;SDS011;51595;24.180;-110.296;2022-08-20T00:23:08;9.65;;;2.40;;
63874;SDS011;51595;24.180;-110.296;2022-08-20T00:25:34;9.70;;;2.40;;
63874;SDS011;51595;24.180;-110.296;2022-08-20T00:28:01;9.95;;;2.30;;
63874;SDS011;51595;24.180;-110.296;2022-08-20T00:30:28;9.93;;;2.30;;
63874;SDS011;51595;24.180;-110.296;2022-08-20T00:35:48;8.70;;;2.13;;
63874;SDS011;51595;24.180;-110.296;2022-08-20T00:38:17;8.32;;;2.40;;
63874;SDS011;51595;24.180;-110.296;2022-08-20T00:40:56;10.95;;;2.33;;
63874;SDS011;51595;24.180;-110.296;2022-08-20T00:43:31;10.77;;;3.13;;
63874;SDS011;51595;24.180;-110.296;2022-08-20T00:48:27;7.57;;;2.38;;
63874;SDS011;51595;24.180;-110.296;2022-08-20T00:51:04;7.20;;;2.38;;
63874;SDS011;51595;24.180;-110.296;2022-08-20T00:53:52;10.80;;;2.80;;
63874;SDS011;51595;24.180;-110.296;2022-08-20T00:56:21;11.35;;;3.10;;
63874;SDS011;51595;24.180;-110.296;2022-08-20T00:58:48;7.88;;;1.95;;
63874;SDS011;51595;24.180;-110.296;2022-08-20T01:01:16;11.88;;;2.85;;
63874;SDS011;51595;24.180;-110.296;2022-08-20T01:03:43;8.07;;;2.42;;
63874;SDS011;51595;24.180;-110.296;2022-08-20T01:06:10;9.45;;;2.60;;
63874;SDS011;51595;24.180;-110.296;2022-08-20T01:08:37;7.18;;;2.22;;
63874;SDS011;51595;24.180;-110.296;2022-08-20T01:11:05;9.60;;;2.40;;
63874;SDS011;51595;24.180;-110.296;2022-08-20T01:13:55;10.05;;;2.35;;
63874;SDS011;51595;24.180;-110.296;2022-08-20T01:16:24;12.43;;;2.40;;
63874;SDS011;51595;24.180;-110.296;2022-08-20T01:18:54;8.25;;;2.35;;
63874;SDS011;51595;24.180;-110.296;2022-08-20T01:21:22;12.80;;;2.85;;
63874;SDS011;51595;24.180;-110.296;2022-08-20T01:24:00;9.25;;;2.20;;
63874;SDS011;51595;24.180;-110.296;2022-08-20T01:26:36;11.13;;;2.55;;
63874;SDS011;51595;24.180;-110.296;2022-08-20T01:29:09;10.18;;;2.55;;
63874;SDS011;51595;24.180;-110.296;2022-08-20T01:31:42;13.02;;;2.28;;
63874;SDS011;51595;24.180;-110.296;2022-08-20T01:34:10;6.75;;;2.35;;
63874;SDS011;51595;24.180;-110.296;2022-08-20T01:36:41;8.63;;;2.30;;
63874;SDS011;51595;24.180;-110.296;2022-08-20T01:39:15;16.00;;;2.88;;
63874;SDS011;51595;24.180;-110.296;2022-08-20T01:44:18;11.27;;;2.70;;
63874;SDS011;51595;24.180;-110.296;2022-08-20T01:46:47;7.47;;;2.10;;
63874;SDS011;51595;24.180;-110.296;2022-08-20T01:49:22;10.93;;;2.22;;
63874;SDS011;51595;24.180;-110.296;2022-08-20T01:51:59;10.90;;;2.83;;
63874;SDS011;51595;24.180;-110.296;2022-08-20T01:54:32;11.00;;;2.40;;
63874;SDS011;51595;24.180;-110.296;2022-08-20T01:57:00;11.23;;;2.75;;
63874;SDS011;51595;24.180;-110.296;2022-08-20T01:59:31;9.60;;;3.20;;
63874;SDS011;51595;24.180;-110.296;2022-08-20T02:01:57;12.35;;;2.72;;
63874;SDS011;51595;24.180;-110.296;2022-08-20T02:04:24;7.53;;;2.08;;
63874;SDS011;51595;24.180;-110.296;2022-08-20T02:06:53;8.18;;;2.50;;
63874;SDS011;51595;24.180;-110.296;2022-08-20T02:09:22;9.00;;;2.55;;
63874;SDS011;51595;24.180;-110.296;2022-08-20T02:11:49;9.75;;;2.65;;
63874;SDS011;51595;24.180;-110.296;2022-08-20T02:14:17;9.85;;;2.40;;
63874;SDS011;51595;24.180;-110.296;2022-08-20T02:16:44;10.93;;;2.50;;
63874;SDS011;51595;24.180;-110.296;2022-08-20T02:19:16;6.78;;;2.60;;
63874;SDS011;51595;24.180;-110.296;2022-08-20T02:21:48;5.90;;;2.25;;
63874;SDS011;51595;24.180;-110.296;2022-08-20T02:24:18;12.73;;;2.38;;
63874;SDS011;51595;24.180;-110.296;2022-08-20T02:26:45;11.75;;;2.72;;
63874;SDS011;51595;24.180;-110.296;2022-08-20T02:29:12;11.32;;;2.38;;
63874;SDS011;51595;24.180;-110.296;2022-08-20T02:31:40;11.10;;;2.63;;
63874;SDS011;51595;24.180;-110.296;2022-08-20T02:34:09;10.57;;;2.53;;
63874;SDS011;51595;24.180;-110.296;2022-08-20T02:36:37;14.55;;;2.88;;
63874;SDS011;51595;24.180;-110.296;2022-08-20T02:39:05;10.68;;;2.50;;
63874;SDS011;51595;24.180;-110.296;2022-08-20T02:41:34;8.85;;;2.58;;
63874;SDS011;51595;24.180;-110.296;2022-08-20T02:44:01;9.55;;;2.58;;
63874;SDS011;51595;24.180;-110.296;2022-08-20T02:46:29;9.38;;;3.17;;
63874;SDS011;51595;24.180;-110.296;2022-08-20T02:48:56;10.63;;;3.05;;
63874;SDS011;51595;24.180;-110.296;2022-08-20T02:51:23;11.20;;;2.50;;
63874;SDS011;51595;24.180;-110.296;2022-08-20T02:53:50;13.02;;;2.72;;
63874;SDS011;51595;24.180;-110.296;2022-08-20T02:56:17;11.48;;;2.95;;
63874;SDS011;51595;24.180;-110.296;2022-08-20T02:58:44;10.05;;;2.75;;
63874;SDS011;51595;24.180;-110.296;2022-08-20T03:01:12;9.50;;;2.20;;
63874;SDS011;51595;24.180;-110.296;2022-08-20T03:03:43;9.90;;;2.65;;
63874;SDS011;51595;24.180;-110.296;2022-08-20T03:06:10;8.45;;;2.60;;
63874;SDS011;51595;24.180;-110.296;2022-08-20T03:08:37;11.02;;;3.03;;
63874;SDS011;51595;24.180;-110.296;2022-08-20T03:11:05;5.55;;;2.05;;
63874;SDS011;51595;24.180;-110.296;2022-08-20T03:13:32;14.30;;;2.95;;
63874;SDS011;51595;24.180;-110.296;2022-08-20T03:15:59;9.07;;;2.22;;
63874;SDS011;51595;24.180;-110.296;2022-08-20T03:18:29;7.10;;;2.30;;
63874;SDS011;51595;24.180;-110.296;2022-08-20T03:20:58;11.07;;;2.85;;
63874;SDS011;51595;24.180;-110.296;2022-08-20T03:23:24;14.90;;;3.47;;
63874;SDS011;51595;24.180;-110.296;2022-08-20T03:25:51;10.63;;;2.97;;
63874;SDS011;51595;24.180;-110.296;2022-08-20T03:28:18;9.25;;;2.85;;
63874;SDS011;51595;24.180;-110.296;2022-08-20T03:30:44;12.85;;;3.05;;
63874;SDS011;51595;24.180;-110.296;2022-08-20T03:33:11;11.90;;;3.03;;
63874;SDS011;51595;24.180;-110.296;2022-08-20T03:35:38;16.40;;;3.05;;
63874;SDS011;51595;24.180;-110.296;2022-08-20T03:38:05;12.70;;;3.15;;
63874;SDS011;51595;24.180;-110.296;2022-08-20T03:40:35;14.23;;;3.65;;
63874;SDS011;51595;24.180;-110.296;2022-08-20T03:43:03;15.25;;;4.13;;
63874;SDS011;51595;24.180;-110.296;2022-08-20T03:45:31;13.68;;;3.40;;
63874;SDS011;51595;24.180;-110.296;2022-08-20T03:47:58;12.25;;;3.17;;
63874;SDS011;51595;24.180;-110.296;2022-08-20T03:50:27;11.13;;;3.00;;
63874;SDS011;51595;24.180;-110.296;2022-08-20T03:52:57;10.52;;;2.70;;
63874;SDS011;51595;24.180;-110.296;2022-08-20T03:55:24;14.38;;;3.13;;
63874;SDS011;51595;24.180;-110.296;2022-08-20T03:57:54;12.40;;;3.30;;
63874;SDS011;51595;24.180;-110.296;2022-08-20T04:00:26;14.25;;;4.15;;
63874;SDS011;51595;24.180;-110.296;2022-08-20T04:02:58;15.13;;;3.28;;
63874;SDS011;51595;24.180;-110.296;2022-08-20T04:05:26;19.77;;;3.75;;
63874;SDS011;51595;24.180;-110.296;2022-08-20T04:07:55;15.27;;;3.53;;
63874;SDS011;51595;24.180;-110.296;2022-08-20T04:10:22;11.60;;;3.05;;
63874;SDS011;51595;24.180;-110.296;2022-08-20T04:12:49;14.13;;;3.50;;
63874;SDS011;51595;24.180;-110.296;2022-08-20T04:15:16;14.45;;;3.78;;
63874;SDS011;51595;24.180;-110.296;2022-08-20T04:17:45;23.15;;;3.78;;
63874;SDS011;51595;24.180;-110.296;2022-08-20T04:20:16;15.40;;;3.53;;
63874;SDS011;51595;24.180;-110.296;2022-08-20T04:22:48;11.82;;;3.00;;
63874;SDS011;51595;24.180;-110.296;2022-08-20T04:25:15;13.38;;;3.08;;
63874;SDS011;51595;24.180;-110.296;2022-08-20T04:27:41;15.40;;;3.55;;
63874;SDS011;51595;24.180;-110.296;2022-08-20T04:30:09;14.95;;;3.85;;
63874;SDS011;51595;24.180;-110.296;2022-08-20T04:32:37;13.82;;;3.95;;
63874;SDS011;51595;24.180;-110.296;2022-08-20T04:35:06;14.30;;;3.67;;
63874;SDS011;51595;24.180;-110.296;2022-08-20T04:37:36;13.55;;;3.83;;
63874;SDS011;51595;24.180;-110.296;2022-08-20T04:40:07;13.65;;;3.50;;
63874;SDS011;51595;24.180;-110.296;2022-08-20T04:42:55;20.02;;;3.22;;
63874;SDS011;51595;24.180;-110.296;2022-08-20T04:45:22;12.68;;;3.13;;
63874;SDS011;51595;24.180;-110.296;2022-08-20T04:47:49;20.73;;;3.45;;
63874;SDS011;51595;24.180;-110.296;2022-08-20T04:50:16;12.15;;;3.25;;
63874;SDS011;51595;24.180;-110.296;2022-08-20T04:52:43;22.95;;;4.05;;
63874;SDS011;51595;24.180;-110.296;2022-08-20T04:55:12;14.48;;;4.00;;
63874;SDS011;51595;24.180;-110.296;2022-08-20T04:57:38;19.88;;;3.80;;
63874;SDS011;51595;24.180;-110.296;2022-08-20T05:00:10;11.73;;;3.20;;
63874;SDS011;51595;24.180;-110.296;2022-08-20T05:02:41;12.77;;;3.08;;
63874;SDS011;51595;24.180;-110.296;2022-08-20T05:05:09;16.60;;;3.90;;
63874;SDS011;51595;24.180;-110.296;2022-08-20T05:07:40;16.35;;;3.38;;
63874;SDS011;51595;24.180;-110.296;2022-08-20T05:10:08;18.95;;;3.97;;
63874;SDS011;51595;24.180;-110.296;2022-08-20T05:12:36;11.80;;;3.47;;
63874;SDS011;51595;24.180;-110.296;2022-08-20T05:15:04;13.10;;;3.45;;
63874;SDS011;51595;24.180;-110.296;2022-08-20T05:17:31;20.15;;;3.50;;
63874;SDS011;51595;24.180;-110.296;2022-08-20T05:19:57;11.77;;;3.97;;
63874;SDS011;51595;24.180;-110.296;2022-08-20T05:22:24;15.40;;;3.83;;
63874;SDS011;51595;24.180;-110.296;2022-08-20T05:24:52;19.30;;;3.63;;
63874;SDS011;51595;24.180;-110.296;2022-08-20T05:27:21;23.58;;;4.97;;
63874;SDS011;51595;24.180;-110.296;2022-08-20T05:29:52;12.07;;;3.60;;
63874;SDS011;51595;24.180;-110.296;2022-08-20T05:32:20;24.75;;;4.45;;
63874;SDS011;51595;24.180;-110.296;2022-08-20T05:34:47;14.20;;;3.75;;
63874;SDS011;51595;24.180;-110.296;2022-08-20T05:37:13;14.38;;;3.75;;
63874;SDS011;51595;24.180;-110.296;2022-08-20T05:39:41;14.65;;;4.20;;
63874;SDS011;51595;24.180;-110.296;2022-08-20T05:42:08;18.35;;;3.78;;
63874;SDS011;51595;24.180;-110.296;2022-08-20T05:44:35;18.63;;;4.28;;
63874;SDS011;51595;24.180;-110.296;2022-08-20T05:47:02;19.20;;;4.57;;
63874;SDS011;51595;24.180;-110.296;2022-08-20T05:49:30;17.30;;;3.90;;
63874;SDS011;51595;24.180;-110.296;2022-08-20T05:51:58;18.13;;;3.97;;
63874;SDS011;51595;24.180;-110.296;2022-08-20T05:54:24;10.80;;;3.35;;
63874;SDS011;51595;24.180;-110.296;2022-08-20T05:56:52;19.40;;;4.10;;
63874;SDS011;51595;24.180;-110.296;2022-08-20T05:59:18;12.77;;;3.75;;
63874;SDS011;51595;24.180;-110.296;2022-08-20T06:01:47;14.75;;;3.63;;
63874;SDS011;51595;24.180;-110.296;2022-08-20T06:04:13;14.93;;;3.28;;
63874;SDS011;51595;24.180;-110.296;2022-08-20T06:06:53;13.05;;;3.10;;
63874;SDS011;51595;24.180;-110.296;2022-08-20T06:09:23;14.05;;;3.50;;
63874;SDS011;51595;24.180;-110.296;2022-08-20T06:11:50;12.73;;;3.65;;
63874;SDS011;51595;24.180;-110.296;2022-08-20T06:14:17;16.17;;;4.65;;
63874;SDS011;51595;24.180;-110.296;2022-08-20T06:16:45;28.70;;;4.07;;
63874;SDS011;51595;24.180;-110.296;2022-08-20T06:19:11;13.00;;;3.78;;
63874;SDS011;51595;24.180;-110.296;2022-08-20T06:21:39;19.98;;;5.20;;
63874;SDS011;51595;24.180;-110.296;2022-08-20T06:24:06;17.50;;;3.47;;
63874;SDS011;51595;24.180;-110.296;2022-08-20T06:26:33;18.60;;;4.10;;
63874;SDS011;51595;24.180;-110.296;2022-08-20T06:29:00;21.05;;;5.22;;
63874;SDS011;51595;24.180;-110.296;2022-08-20T06:31:27;23.88;;;3.72;;
63874;SDS011;51595;24.180;-110.296;2022-08-20T06:33:54;13.73;;;3.47;;
63874;SDS011;51595;24.180;-110.296;2022-08-20T06:36:21;11.65;;;3.40;;
63874;SDS011;51595;24.180;-110.296;2022-08-20T06:38:49;15.90;;;3.60;;
63874;SDS011;51595;24.180;-110.296;2022-08-20T06:41:15;16.27;;;3.70;;
63874;SDS011;51595;24.180;-110.296;2022-08-20T06:43:41;19.30;;;4.57;;
63874;SDS011;51595;24.180;-110.296;2022-08-20T06:46:08;13.13;;;3.67;;
63874;SDS011;51595;24.180;-110.296;2022-08-20T06:48:34;15.38;;;3.10;;
63874;SDS011;51595;24.180;-110.296;2022-08-20T06:51:01;12.55;;;3.50;;
63874;SDS011;51595;24.180;-110.296;2022-08-20T06:53:28;17.42;;;3.90;;
63874;SDS011;51595;24.180;-110.296;2022-08-20T06:55:55;14.38;;;3.45;;
63874;SDS011;51595;24.180;-110.296;2022-08-20T06:58:23;11.05;;;3.03;;
63874;SDS011;51595;24.180;-110.296;2022-08-20T07:00:50;15.05;;;3.38;;
63874;SDS011;51595;24.180;-110.296;2022-08-20T07:03:17;17.15;;;4.25;;
63874;SDS011;51595;24.180;-110.296;2022-08-20T07:05:44;12.05;;;3.47;;
63874;SDS011;51595;24.180;-110.296;2022-08-20T07:08:14;18.80;;;3.90;;
63874;SDS011;51595;24.180;-110.296;2022-08-20T07:10:46;14.40;;;3.38;;
63874;SDS011;51595;24.180;-110.296;2022-08-20T07:13:13;12.13;;;3.17;;
63874;SDS011;51595;24.180;-110.296;2022-08-20T07:15:41;14.43;;;3.47;;
63874;SDS011;51595;24.180;-110.296;2022-08-20T07:18:09;11.82;;;3.15;;
63874;SDS011;51595;24.180;-110.296;2022-08-20T07:20:38;15.70;;;3.53;;
63874;SDS011;51595;24.180;-110.296;2022-08-20T07:23:05;15.68;;;4.35;;
63874;SDS011;51595;24.180;-110.296;2022-08-20T07:25:32;12.20;;;3.55;;
63874;SDS011;51595;24.180;-110.296;2022-08-20T07:28:00;17.20;;;3.65;;
63874;SDS011;51595;24.180;-110.296;2022-08-20T07:30:29;10.80;;;3.38;;
63874;SDS011;51595;24.180;-110.296;2022-08-20T07:33:14;12.30;;;2.97;;
63874;SDS011;51595;24.180;-110.296;2022-08-20T07:35:41;11.85;;;3.00;;
63874;SDS011;51595;24.180;-110.296;2022-08-20T07:38:15;12.88;;;3.35;;
63874;SDS011;51595;24.180;-110.296;2022-08-20T07:40:49;19.65;;;3.97;;
63874;SDS011;51595;24.180;-110.296;2022-08-20T07:43:17;14.55;;;3.88;;
63874;SDS011;51595;24.180;-110.296;2022-08-20T07:45:45;13.65;;;3.05;;
63874;SDS011;51595;24.180;-110.296;2022-08-20T07:48:12;9.73;;;3.13;;
63874;SDS011;51595;24.180;-110.296;2022-08-20T07:50:41;12.63;;;3.60;;
63874;SDS011;51595;24.180;-110.296;2022-08-20T07:53:08;15.80;;;3.25;;
63874;SDS011;51595;24.180;-110.296;2022-08-20T07:55:36;10.70;;;3.05;;
63874;SDS011;51595;24.180;-110.296;2022-08-20T07:58:08;15.65;;;3.75;;
63874;SDS011;51595;24.180;-110.296;2022-08-20T08:00:37;11.88;;;3.08;;
63874;SDS011;51595;24.180;-110.296;2022-08-20T08:03:04;11.77;;;3.15;;
63874;SDS011;51595;24.180;-110.296;2022-08-20T08:05:33;13.63;;;2.95;;
63874;SDS011;51595;24.180;-110.296;2022-08-20T08:08:03;11.38;;;2.97;;
63874;SDS011;51595;24.180;-110.296;2022-08-20T08:10:34;16.52;;;3.72;;
63874;SDS011;51595;24.180;-110.296;2022-08-20T08:13:03;18.90;;;3.58;;
63874;SDS011;51595;24.180;-110.296;2022-08-20T08:15:33;11.93;;;3.72;;
63874;SDS011;51595;24.180;-110.296;2022-08-20T08:18:06;16.35;;;3.30;;
63874;SDS011;51595;24.180;-110.296;2022-08-20T08:20:38;18.77;;;4.68;;
63874;SDS011;51595;24.180;-110.296;2022-08-20T08:23:08;12.32;;;3.00;;
63874;SDS011;51595;24.180;-110.296;2022-08-20T08:25:39;15.82;;;3.47;;
63874;SDS011;51595;24.180;-110.296;2022-08-20T08:28:07;21.20;;;3.78;;
63874;SDS011;51595;24.180;-110.296;2022-08-20T08:30:45;13.30;;;3.33;;
63874;SDS011;51595;24.180;-110.296;2022-08-20T08:33:23;9.65;;;3.20;;
63874;SDS011;51595;24.180;-110.296;2022-08-20T08:36:01;15.80;;;3.42;;
63874;SDS011;51595;24.180;-110.296;2022-08-20T08:38:46;9.45;;;2.80;;
63874;SDS011;51595;24.180;-110.296;2022-08-20T08:41:20;18.40;;;3.72;;
63874;SDS011;51595;24.180;-110.296;2022-08-20T08:44:06;10.30;;;2.92;;
63874;SDS011;51595;24.180;-110.296;2022-08-20T08:46:38;12.07;;;3.10;;
63874;SDS011;51595;24.180;-110.296;2022-08-20T08:49:09;13.32;;;3.22;;
63874;SDS011;51595;24.180;-110.296;2022-08-20T08:51:49;12.68;;;3.28;;
63874;SDS011;51595;24.180;-110.296;2022-08-20T08:54:23;8.60;;;2.80;;
63874;SDS011;51595;24.180;-110.296;2022-08-20T08:56:53;9.77;;;2.92;;
63874;SDS011;51595;24.180;-110.296;2022-08-20T08:59:20;7.90;;;2.40;;
63874;SDS011;51595;24.180;-110.296;2022-08-20T09:01:48;13.70;;;3.80;;
63874;SDS011;51595;24.180;-110.296;2022-08-20T09:04:18;12.40;;;3.28;;
63874;SDS011;51595;24.180;-110.296;2022-08-20T09:06:46;13.85;;;3.47;;
63874;SDS011;51595;24.180;-110.296;2022-08-20T09:09:18;10.60;;;3.33;;
63874;SDS011;51595;24.180;-110.296;2022-08-20T09:11:50;14.48;;;3.40;;
63874;SDS011;51595;24.180;-110.296;2022-08-20T09:14:18;13.55;;;3.30;;
63874;SDS011;51595;24.180;-110.296;2022-08-20T09:16:45;12.95;;;3.17;;
63874;SDS011;51595;24.180;-110.296;2022-08-20T09:19:12;10.90;;;2.63;;
63874;SDS011;51595;24.180;-110.296;2022-08-20T09:21:38;12.77;;;3.35;;
63874;SDS011;51595;24.180;-110.296;2022-08-20T09:24:05;15.98;;;3.08;;
63874;SDS011;51595;24.180;-110.296;2022-08-20T09:26:31;11.13;;;3.08;;
63874;SDS011;51595;24.180;-110.296;2022-08-20T09:28:58;16.42;;;3.10;;
63874;SDS011;51595;24.180;-110.296;2022-08-20T09:31:24;11.20;;;3.95;;
63874;SDS011;51595;24.180;-110.296;2022-08-20T09:33:51;10.82;;;3.33;;
63874;SDS011;51595;24.180;-110.296;2022-08-20T09:36:18;11.57;;;3.17;;
63874;SDS011;51595;24.180;-110.296;2022-08-20T09:38:44;10.30;;;3.08;;
63874;SDS011;51595;24.180;-110.296;2022-08-20T09:41:11;13.10;;;3.45;;
63874;SDS011;51595;24.180;-110.296;2022-08-20T09:43:37;11.98;;;3.40;;
63874;SDS011;51595;24.180;-110.296;2022-08-20T09:46:04;14.13;;;3.55;;
63874;SDS011;51595;24.180;-110.296;2022-08-20T09:48:30;10.55;;;3.53;;
63874;SDS011;51595;24.180;-110.296;2022-08-20T09:50:57;10.65;;;3.13;;
63874;SDS011;51595;24.180;-110.296;2022-08-20T09:53:23;10.75;;;4.05;;
63874;SDS011;51595;24.180;-110.296;2022-08-20T09:55:53;12.75;;;3.95;;
63874;SDS011;51595;24.180;-110.296;2022-08-20T09:58:21;14.73;;;3.47;;
63874;SDS011;51595;24.180;-110.296;2022-08-20T10:00:55;20.48;;;5.07;;
63874;SDS011;51595;24.180;-110.296;2022-08-20T10:03:22;13.20;;;3.53;;
63874;SDS011;51595;24.180;-110.296;2022-08-20T10:05:48;15.77;;;3.80;;
63874;SDS011;51595;24.180;-110.296;2022-08-20T10:08:14;16.70;;;3.67;;
63874;SDS011;51595;24.180;-110.296;2022-08-20T10:10:41;15.93;;;3.40;;
63874;SDS011;51595;24.180;-110.296;2022-08-20T10:13:07;11.63;;;3.60;;
63874;SDS011;51595;24.180;-110.296;2022-08-20T10:15:34;14.75;;;4.75;;
63874;SDS011;51595;24.180;-110.296;2022-08-20T10:18:04;19.00;;;4.32;;
63874;SDS011;51595;24.180;-110.296;2022-08-20T10:20:32;15.90;;;4.32;;
63874;SDS011;51595;24.180;-110.296;2022-08-20T10:22:59;20.05;;;4.35;;
63874;SDS011;51595;24.180;-110.296;2022-08-20T10:25:26;19.15;;;4.88;;
63874;SDS011;51595;24.180;-110.296;2022-08-20T10:27:53;13.32;;;4.25;;
63874;SDS011;51595;24.180;-110.296;2022-08-20T10:30:20;20.35;;;4.90;;
63874;SDS011;51595;24.180;-110.296;2022-08-20T10:32:47;16.40;;;4.30;;
63874;SDS011;51595;24.180;-110.296;2022-08-20T10:35:14;20.08;;;4.85;;
63874;SDS011;51595;24.180;-110.296;2022-08-20T10:37:40;22.08;;;4.63;;
63874;SDS011;51595;24.180;-110.296;2022-08-20T10:40:07;18.75;;;5.18;;
63874;SDS011;51595;24.180;-110.296;2022-08-20T10:42:35;11.73;;;3.92;;
63874;SDS011;51595;24.180;-110.296;2022-08-20T10:45:01;15.40;;;4.70;;
63874;SDS011;51595;24.180;-110.296;2022-08-20T10:47:30;16.60;;;4.18;;
63874;SDS011;51595;24.180;-110.296;2022-08-20T10:49:58;14.10;;;4.13;;
63874;SDS011;51595;24.180;-110.296;2022-08-20T10:52:25;23.38;;;5.05;;
63874;SDS011;51595;24.180;-110.296;2022-08-20T10:54:52;15.73;;;4.85;;
63874;SDS011;51595;24.180;-110.296;2022-08-20T10:57:20;20.33;;;4.70;;
63874;SDS011;51595;24.180;-110.296;2022-08-20T10:59:49;12.10;;;4.22;;
63874;SDS011;51595;24.180;-110.296;2022-08-20T11:02:17;17.80;;;4.85;;
63874;SDS011;51595;24.180;-110.296;2022-08-20T11:04:44;18.55;;;4.45;;
63874;SDS011;51595;24.180;-110.296;2022-08-20T11:09:57;17.15;;;4.47;;
63874;SDS011;51595;24.180;-110.296;2022-08-20T11:12:24;24.17;;;4.80;;
63874;SDS011;51595;24.180;-110.296;2022-08-20T11:14:51;18.05;;;5.18;;
63874;SDS011;51595;24.180;-110.296;2022-08-20T11:17:19;18.83;;;4.82;;
63874;SDS011;51595;24.180;-110.296;2022-08-20T11:19:47;20.70;;;4.70;;
63874;SDS011;51595;24.180;-110.296;2022-08-20T11:22:14;17.90;;;4.70;;
63874;SDS011;51595;24.180;-110.296;2022-08-20T11:24:41;18.27;;;4.93;;
63874;SDS011;51595;24.180;-110.296;2022-08-20T11:27:08;21.10;;;4.97;;
63874;SDS011;51595;24.180;-110.296;2022-08-20T11:29:35;16.50;;;4.60;;
63874;SDS011;51595;24.180;-110.296;2022-08-20T11:32:04;14.73;;;4.32;;
63874;SDS011;51595;24.180;-110.296;2022-08-20T11:34:31;16.75;;;5.35;;
63874;SDS011;51595;24.180;-110.296;2022-08-20T11:36:57;17.65;;;4.88;;
63874;SDS011;51595;24.180;-110.296;2022-08-20T11:39:24;25.42;;;5.03;;
63874;SDS011;51595;24.180;-110.296;2022-08-20T11:41:51;18.73;;;5.30;;
63874;SDS011;51595;24.180;-110.296;2022-08-20T11:44:17;21.00;;;4.70;;
63874;SDS011;51595;24.180;-110.296;2022-08-20T11:46:44;20.00;;;4.60;;
63874;SDS011;51595;24.180;-110.296;2022-08-20T11:49:10;17.17;;;4.43;;
63874;SDS011;51595;24.180;-110.296;2022-08-20T11:51:36;17.05;;;4.68;;
63874;SDS011;51595;24.180;-110.296;2022-08-20T11:54:03;16.33;;;5.18;;
63874;SDS011;51595;24.180;-110.296;2022-08-20T11:56:30;20.58;;;4.97;;
63874;SDS011;51595;24.180;-110.296;2022-08-20T11:58:57;18.90;;;4.47;;
63874;SDS011;51595;24.180;-110.296;2022-08-20T12:01:23;20.63;;;4.95;;
63874;SDS011;51595;24.180;-110.296;2022-08-20T12:03:50;21.02;;;5.50;;
63874;SDS011;51595;24.180;-110.296;2022-08-20T12:06:16;13.73;;;4.30;;
63874;SDS011;51595;24.180;-110.296;2022-08-20T12:08:43;20.38;;;5.38;;
63874;SDS011;51595;24.180;-110.296;2022-08-20T12:11:09;18.95;;;4.53;;
63874;SDS011;51595;24.180;-110.296;2022-08-20T12:13:36;19.20;;;5.10;;
63874;SDS011;51595;24.180;-110.296;2022-08-20T12:16:03;21.88;;;3.83;;
63874;SDS011;51595;24.180;-110.296;2022-08-20T12:18:30;18.23;;;5.63;;
63874;SDS011;51595;24.180;-110.296;2022-08-20T12:20:57;20.95;;;4.50;;
63874;SDS011;51595;24.180;-110.296;2022-08-20T12:23:24;19.40;;;4.78;;
63874;SDS011;51595;24.180;-110.296;2022-08-20T12:25:50;16.42;;;4.97;;
63874;SDS011;51595;24.180;-110.296;2022-08-20T12:28:17;20.50;;;5.05;;
63874;SDS011;51595;24.180;-110.296;2022-08-20T12:30:43;19.38;;;5.57;;
63874;SDS011;51595;24.180;-110.296;2022-08-20T12:33:10;19.73;;;5.10;;
63874;SDS011;51595;24.180;-110.296;2022-08-20T12:35:38;21.25;;;5.53;;
63874;SDS011;51595;24.180;-110.296;2022-08-20T12:38:05;22.42;;;5.18;;
63874;SDS011;51595;24.180;-110.296;2022-08-20T12:40:32;17.85;;;4.68;;
63874;SDS011;51595;24.180;-110.296;2022-08-20T12:42:59;21.60;;;4.95;;
63874;SDS011;51595;24.180;-110.296;2022-08-20T12:45:26;22.85;;;5.70;;
63874;SDS011;51595;24.180;-110.296;2022-08-20T12:47:58;21.40;;;4.65;;
63874;SDS011;51595;24.180;-110.296;2022-08-20T12:50:32;15.65;;;5.18;;
63874;SDS011;51595;24.180;-110.296;2022-08-20T12:53:00;16.13;;;4.50;;
63874;SDS011;51595;24.180;-110.296;2022-08-20T12:55:27;21.42;;;6.05;;
63874;SDS011;51595;24.180;-110.296;2022-08-20T12:58:00;23.98;;;5.18;;
63874;SDS011;51595;24.180;-110.296;2022-08-20T13:00:29;16.48;;;4.65;;
63874;SDS011;51595;24.180;-110.296;2022-08-20T13:02:58;15.75;;;4.68;;
63874;SDS011;51595;24.180;-110.296;2022-08-20T13:05:27;18.15;;;4.78;;
63874;SDS011;51595;24.180;-110.296;2022-08-20T13:07:54;17.38;;;4.88;;
63874;SDS011;51595;24.180;-110.296;2022-08-20T13:10:22;24.92;;;5.97;;
63874;SDS011;51595;24.180;-110.296;2022-08-20T13:12:59;19.88;;;4.38;;
63874;SDS011;51595;24.180;-110.296;2022-08-20T13:15:27;16.48;;;4.40;;
63874;SDS011;51595;24.180;-110.296;2022-08-20T13:17:56;17.75;;;4.53;;
63874;SDS011;51595;24.180;-110.296;2022-08-20T13:20:24;21.10;;;4.55;;
63874;SDS011;51595;24.180;-110.296;2022-08-20T13:22:52;15.63;;;4.78;;
63874;SDS011;51595;24.180;-110.296;2022-08-20T13:25:20;19.77;;;5.07;;
63874;SDS011;51595;24.180;-110.296;2022-08-20T13:27:47;18.67;;;4.82;;
63874;SDS011;51595;24.180;-110.296;2022-08-20T13:30:16;18.30;;;4.88;;
63874;SDS011;51595;24.180;-110.296;2022-08-20T13:32:44;20.85;;;5.45;;
63874;SDS011;51595;24.180;-110.296;2022-08-20T13:35:11;22.13;;;5.10;;
63874;SDS011;51595;24.180;-110.296;2022-08-20T13:37:39;15.85;;;4.95;;
63874;SDS011;51595;24.180;-110.296;2022-08-20T13:40:07;20.83;;;4.53;;
63874;SDS011;51595;24.180;-110.296;2022-08-20T13:42:34;21.70;;;4.63;;
63874;SDS011;51595;24.180;-110.296;2022-08-20T13:45:01;18.88;;;5.13;;
63874;SDS011;51595;24.180;-110.296;2022-08-20T13:47:29;22.55;;;5.15;;
63874;SDS011;51595;24.180;-110.296;2022-08-20T13:50:02;15.15;;;5.13;;
63874;SDS011;51595;24.180;-110.296;2022-08-20T13:52:32;22.48;;;4.13;;
63874;SDS011;51595;24.180;-110.296;2022-08-20T13:54:59;21.25;;;4.47;;
63874;SDS011;51595;24.180;-110.296;2022-08-20T13:57:25;16.75;;;4.55;;
63874;SDS011;51595;24.180;-110.296;2022-08-20T13:59:53;16.88;;;4.80;;
63874;SDS011;51595;24.180;-110.296;2022-08-20T14:02:21;14.90;;;4.53;;
63874;SDS011;51595;24.180;-110.296;2022-08-20T14:04:48;18.08;;;4.45;;
63874;SDS011;51595;24.180;-110.296;2022-08-20T14:07:23;20.25;;;4.70;;
63874;SDS011;51595;24.180;-110.296;2022-08-20T14:09:52;18.00;;;4.43;;
63874;SDS011;51595;24.180;-110.296;2022-08-20T14:12:25;16.67;;;4.07;;
63874;SDS011;51595;24.180;-110.296;2022-08-20T14:14:52;18.27;;;4.07;;
63874;SDS011;51595;24.180;-110.296;2022-08-20T14:17:23;21.52;;;4.78;;